Time;durP1;ratioP1;P1;durP2;ratioP2;P2;SDS_P1;SDS_P2;PMS_P1;PMS_P2;Temp;Humidity;BMP_temperature;BMP_pressure;BME280_temperature;BME280_humidity;BME280_pressure;Samples;Min_cycle;Max_cycle;Signal;HPM_P1;HPM_P2
2021/09/22 00:01:34;;;;;;;55.03;31.25;;;;;;;11.12;99.56;103150.44;5027394;28;20317;-77
2021/09/22 00:04:00;;;;;;;48.95;26.77;;;;;;;11.10;99.10;103149.44;5027611;28;20079;-76
2021/09/22 00:06:25;;;;;;;52.58;29.05;;;;;;;11.08;98.91;103150.16;5030026;28;20084;-77
2021/09/22 00:08:51;;;;;;;57.25;32.60;;;;;;;11.04;99.10;103145.56;5029844;28;20480;-77
2021/09/22 00:11:18;;;;;;;54.88;29.65;;;;;;;11.02;99.24;103147.25;5027952;28;20060;-78
2021/09/22 00:13:43;;;;;;;53.20;31.17;;;;;;;10.97;99.38;103146.97;5029337;28;20510;-78
2021/09/22 00:16:09;;;;;;;56.90;31.40;;;;;;;10.94;99.31;103138.94;5029016;28;20046;-77
2021/09/22 00:18:34;;;;;;;59.72;32.55;;;;;;;10.92;99.17;103145.81;5029775;28;20080;-78
2021/09/22 00:21:00;;;;;;;58.40;34.40;;;;;;;10.88;99.53;103155.31;5028973;28;20537;-79
2021/09/22 00:23:26;;;;;;;61.15;33.33;;;;;;;10.84;99.66;103147.16;5030025;28;20105;-76
2021/09/22 00:25:51;;;;;;;61.08;32.88;;;;;;;10.82;99.70;103154.97;5060883;28;20433;-76
2021/09/22 00:28:20;;;;;;;59.92;31.50;;;;;;;10.80;99.74;103149.63;5030913;28;20087;-77
2021/09/22 00:30:47;;;;;;;61.78;34.35;;;;;;;10.76;99.40;103150.31;5032730;28;20044;-76
2021/09/22 00:33:13;;;;;;;59.15;34.20;;;;;;;10.73;99.95;103139.63;5031696;28;20026;-75
2021/09/22 00:35:38;;;;;;;69.68;35.83;;;;;;;10.71;100.00;103138.63;5035239;28;20117;-79
2021/09/22 00:38:06;;;;;;;66.38;34.22;;;;;;;10.71;100.00;103130.72;5032781;28;20111;-74
2021/09/22 00:40:32;;;;;;;53.40;29.35;;;;;;;10.71;99.87;103140.34;5032856;28;20496;-78
2021/09/22 00:42:57;;;;;;;54.55;31.02;;;;;;;10.69;100.00;103141.97;5033439;28;20028;-77
2021/09/22 00:45:23;;;;;;;60.85;33.50;;;;;;;10.65;99.60;103135.69;5033133;28;20033;-77
2021/09/22 00:47:48;;;;;;;64.97;35.08;;;;;;;10.63;99.75;103140.88;5034210;28;20021;-78
2021/09/22 00:50:14;;;;;;;63.28;34.08;;;;;;;10.63;100.00;103148.75;5032925;28;20124;-77
2021/09/22 00:53:00;;;;;;;61.55;33.35;;;;;;;10.63;99.58;103138.22;5030288;28;20037;-76
2021/09/22 00:55:25;;;;;;;70.22;35.92;;;;;;;10.65;99.82;103133.03;5030125;28;20045;-77
2021/09/22 00:58:11;;;;;;;72.40;36.67;;;;;;;10.64;100.00;103141.75;5032191;28;20432;-77
2021/09/22 01:00:38;;;;;;;60.05;31.77;;;;;;;10.67;99.60;103139.28;5032157;28;20102;-77
2021/09/22 01:03:04;;;;;;;69.82;35.40;;;;;;;10.68;100.00;103143.72;5029738;28;20424;-78
2021/09/22 01:05:30;;;;;;;70.32;34.13;;;;;;;10.69;99.65;103142.91;5032369;28;20368;-77
2021/09/22 01:07:57;;;;;;;80.90;38.35;;;;;;;10.71;99.91;103135.09;5030407;28;20085;-78
2021/09/22 01:10:22;;;;;;;76.07;37.55;;;;;;;10.70;99.87;103139.47;5033794;28;20532;-77
2021/09/22 01:13:08;;;;;;;81.05;39.35;;;;;;;10.71;99.85;103133.34;5028687;28;20114;-77
2021/09/22 01:15:38;;;;;;;73.45;35.92;;;;;;;10.69;100.00;103132.38;5034847;28;20037;-76
2021/09/22 01:18:16;;;;;;;74.70;36.67;;;;;;;10.67;99.89;103128.75;5026614;28;20083;-78
2021/09/22 01:20:43;;;;;;;72.80;36.95;;;;;;;10.65;99.87;103117.25;5030489;28;20380;-77
2021/09/22 01:23:09;;;;;;;78.40;36.70;;;;;;;10.66;100.00;103121.66;5010005;28;20041;-78
2021/09/22 01:25:54;;;;;;;81.78;37.60;;;;;;;10.67;99.81;103128.75;5032568;28;20113;-76
2021/09/22 01:28:23;;;;;;;76.13;37.38;;;;;;;10.68;99.88;103121.78;5031046;28;20033;-78
2021/09/22 01:30:49;;;;;;;91.82;39.72;;;;;;;10.69;99.77;103124.47;5032689;28;20034;-78
2021/09/22 01:33:35;;;;;;;88.35;37.08;;;;;;;10.71;100.00;103122.81;5034077;28;20029;-77
2021/09/22 01:36:00;;;;;;;90.72;38.67;;;;;;;10.71;100.00;103121.91;5022695;28;20038;-77
2021/09/22 01:38:27;;;;;;;80.43;38.22;;;;;;;10.73;99.95;103123.81;5025881;28;20033;-76
2021/09/22 01:41:01;;;;;;;80.68;36.22;;;;;;;10.77;99.51;103117.88;5033108;28;20034;-76
2021/09/22 01:43:29;;;;;;;71.47;34.70;;;;;;;10.84;99.61;103123.44;5032641;28;20100;-78
2021/09/22 01:45:55;;;;;;;70.43;33.97;;;;;;;10.91;100.00;103125.59;5032549;28;20424;-77
2021/09/22 01:48:20;;;;;;;61.58;30.15;;;;;;;10.94;99.90;103115.22;5033402;28;20059;-77
2021/09/22 01:50:46;;;;;;;72.88;35.70;;;;;;;10.99;99.65;103119.00;5033113;28;20383;-77
2021/09/22 01:53:12;;;;;;;62.88;30.95;;;;;;;11.01;99.82;103124.34;5031138;28;20112;-77
2021/09/22 01:55:37;;;;;;;70.95;34.72;;;;;;;11.06;100.00;103117.59;5032685;28;20026;-76
2021/09/22 01:58:03;;;;;;;61.65;30.42;;;;;;;11.12;100.00;103125.78;5063718;28;20076;-78
2021/09/22 02:00:28;;;;;;;60.25;30.73;;;;;;;11.18;100.00;103127.81;5032057;28;20101;-76
2021/09/22 02:02:54;;;;;;;55.95;28.33;;;;;;;11.18;99.99;103118.22;5031348;28;20044;-77
2021/09/22 02:05:19;;;;;;;72.32;33.85;;;;;;;11.24;100.00;103130.78;5031761;28;20035;-77
2021/09/22 02:07:45;;;;;;;68.60;33.67;;;;;;;11.23;100.00;103136.88;5028493;28;20026;-77
2021/09/22 02:10:26;;;;;;;72.65;32.58;;;;;;;11.21;99.82;103128.00;5032582;28;20029;-77
2021/09/22 02:12:51;;;;;;;72.88;34.63;;;;;;;11.19;100.00;103129.63;5030984;28;20039;-76
2021/09/22 02:15:17;;;;;;;71.40;34.55;;;;;;;11.20;100.00;103126.19;5025351;28;20105;-77
2021/09/22 02:17:42;;;;;;;65.35;31.38;;;;;;;11.19;100.00;103119.09;5033613;28;20076;-77
2021/09/22 02:20:10;;;;;;;80.57;33.70;;;;;;;11.18;100.00;103112.00;5031454;28;20442;-78
2021/09/22 02:22:35;;;;;;;69.13;32.88;;;;;;;11.14;100.00;103106.59;5031142;28;20040;-77
2021/09/22 02:25:01;;;;;;;74.63;34.65;;;;;;;11.08;100.00;103095.75;5028514;28;20018;-77
2021/09/22 02:27:27;;;;;;;72.50;32.45;;;;;;;11.02;100.00;103099.81;5031007;28;20025;-77
2021/09/22 02:29:52;;;;;;;76.28;34.28;;;;;;;10.99;100.00;103103.19;5030560;28;20029;-78
2021/09/22 02:32:17;;;;;;;75.97;33.28;;;;;;;10.94;100.00;103096.78;5029624;28;20156;-77
2021/09/22 02:34:44;;;;;;;66.95;32.47;;;;;;;10.91;100.00;103101.91;5029027;28;20029;-76
2021/09/22 02:37:10;;;;;;;79.80;34.63;;;;;;;10.89;100.00;103095.63;5032213;28;20510;-77
2021/09/22 02:39:56;;;;;;;70.18;31.50;;;;;;;10.87;100.00;103095.56;5030735;28;20033;-77
2021/09/22 02:42:23;;;;;;;74.80;32.75;;;;;;;10.86;100.00;103090.22;5021172;28;20041;-77
2021/09/22 02:44:48;;;;;;;72.63;34.60;;;;;;;10.82;100.00;103090.88;5028392;28;20021;-76
2021/09/22 02:47:14;;;;;;;81.03;34.97;;;;;;;10.78;100.00;103098.63;5032656;28;20040;-75
2021/09/22 02:49:40;;;;;;;77.82;33.95;;;;;;;10.82;100.00;103090.88;5031815;28;20032;-76
2021/09/22 02:52:06;;;;;;;77.10;34.08;;;;;;;10.86;100.00;103092.84;5032388;28;20065;-78
2021/09/22 02:54:31;;;;;;;85.20;37.17;;;;;;;10.88;100.00;103091.19;5029564;28;20060;-77
2021/09/22 02:56:56;;;;;;;77.38;33.58;;;;;;;10.93;100.00;103087.06;5027904;28;20069;-76
2021/09/22 02:59:22;;;;;;;85.22;37.08;;;;;;;10.99;100.00;103090.03;5028152;28;20029;-76
2021/09/22 03:01:47;;;;;;;75.00;33.20;;;;;;;11.04;100.00;103092.88;5031668;28;20457;-77
2021/09/22 03:04:13;;;;;;;77.38;34.53;;;;;;;11.12;100.00;103091.53;5029102;28;20030;-75
2021/09/22 03:06:38;;;;;;;94.40;39.50;;;;;;;11.14;100.00;103080.25;5030699;28;20605;-75
2021/09/22 03:09:04;;;;;;;91.10;38.03;;;;;;;11.16;100.00;103090.84;5028387;28;20026;-75
2021/09/22 03:11:49;;;;;;;89.10;39.70;;;;;;;11.18;100.00;103090.94;5032261;28;20534;-76
2021/09/22 03:14:14;;;;;;;89.22;38.15;;;;;;;11.20;100.00;103092.81;5030439;28;20033;-76
2021/09/22 03:16:40;;;;;;;89.60;38.78;;;;;;;11.26;100.00;103089.63;5030007;28;20030;-75
2021/09/22 03:19:05;;;;;;;69.40;33.65;;;;;;;11.31;100.00;103085.44;5031454;28;20041;-77
2021/09/22 03:21:31;;;;;;;80.38;36.38;;;;;;;11.38;100.00;103077.03;5026695;28;20033;-76
2021/09/22 03:23:56;;;;;;;80.45;38.53;;;;;;;11.43;100.00;103078.13;5030775;28;20083;-76
2021/09/22 03:26:22;;;;;;;86.57;39.33;;;;;;;11.44;100.00;103074.69;5033263;28;20025;-76
2021/09/22 03:28:48;;;;;;;69.72;33.20;;;;;;;11.44;100.00;103069.41;5029294;28;20107;-76
2021/09/22 03:31:14;;;;;;;67.82;34.47;;;;;;;11.44;100.00;103064.13;5031664;28;20136;-77
2021/09/22 03:33:40;;;;;;;77.10;35.40;;;;;;;11.40;100.00;103066.56;5031703;28;20543;-76
2021/09/22 03:36:05;;;;;;;76.03;36.25;;;;;;;11.34;100.00;103067.19;5028787;28;20029;-76
2021/09/22 03:38:31;;;;;;;69.55;34.33;;;;;;;11.29;99.95;103058.13;5032315;28;20056;-75
2021/09/22 03:40:57;;;;;;;77.70;36.92;;;;;;;11.28;99.80;103057.22;5032130;28;20037;-76
2021/09/22 03:43:23;;;;;;;67.40;33.90;;;;;;;11.31;99.49;103061.72;5030345;28;20483;-76
2021/09/22 03:45:49;;;;;;;76.30;35.95;;;;;;;11.30;100.00;103059.94;5017802;28;20361;-76
2021/09/22 03:48:15;;;;;;;73.47;35.97;;;;;;;11.28;100.00;103058.94;5029665;28;20083;-77
2021/09/22 03:50:40;;;;;;;73.93;34.47;;;;;;;11.28;100.00;103056.31;5030057;28;20022;-76
2021/09/22 03:53:06;;;;;;;76.53;34.70;;;;;;;11.28;100.00;103053.69;5031216;28;20109;-75
2021/09/22 03:55:31;;;;;;;74.07;34.95;;;;;;;11.24;100.00;103052.63;5029798;28;20057;-76
2021/09/22 03:58:17;;;;;;;70.03;33.40;;;;;;;11.21;100.00;103046.31;5030585;28;20065;-75
2021/09/22 04:00:44;;;;;;;65.20;32.95;;;;;;;11.20;100.00;103055.03;5030208;28;20403;-76
2021/09/22 04:03:10;;;;;;;67.18;34.13;;;;;;;11.23;100.00;103050.84;5027740;28;20037;-75
2021/09/22 04:05:35;;;;;;;72.32;34.72;;;;;;;11.22;100.00;103058.66;5028494;28;20022;-75
2021/09/22 04:08:01;;;;;;;67.93;32.67;;;;;;;11.17;99.65;103057.53;5023512;28;20488;-76
2021/09/22 04:10:26;;;;;;;69.38;33.88;;;;;;;11.13;100.00;103053.81;5029269;28;20034;-76
2021/09/22 04:12:52;;;;;;;74.43;35.95;;;;;;;11.12;100.00;103049.38;5028355;28;20382;-75
2021/09/22 04:15:17;;;;;;;84.10;36.92;;;;;;;11.09;100.00;103049.22;5030522;28;20111;-77
2021/09/22 04:17:42;;;;;;;78.78;36.28;;;;;;;11.05;100.00;103053.44;5030426;28;20026;-75
2021/09/22 04:20:11;;;;;;;77.78;37.60;;;;;;;11.03;100.00;103048.91;5023684;28;20042;-76
2021/09/22 04:22:39;;;;;;;79.75;35.67;;;;;;;11.03;100.00;103051.53;5027532;28;20036;-77
2021/09/22 04:25:10;;;;;;;73.88;36.38;;;;;;;11.07;99.79;103051.78;5029231;28;20032;-76
2021/09/22 04:27:35;;;;;;;84.72;38.47;;;;;;;11.13;100.00;103053.81;5030173;28;20376;-77
2021/09/22 04:30:03;;;;;;;72.47;35.53;;;;;;;11.13;100.00;103062.63;5030259;28;20025;-77
2021/09/22 04:32:29;;;;;;;72.43;34.90;;;;;;;11.12;100.00;103058.19;5030339;28;20121;-76
2021/09/22 04:34:57;;;;;;;73.53;34.13;;;;;;;11.11;100.00;103061.66;5029332;28;20065;-75
2021/09/22 04:37:24;;;;;;;83.75;38.20;;;;;;;11.13;100.00;103057.34;5030245;28;20104;-77
2021/09/22 04:39:51;;;;;;;77.88;36.45;;;;;;;11.09;100.00;103059.78;5028556;28;20056;-76
2021/09/22 04:42:16;;;;;;;72.05;33.30;;;;;;;11.05;100.00;103069.22;5026785;28;20087;-75
2021/09/22 04:44:42;;;;;;;84.40;37.55;;;;;;;11.02;100.00;103063.81;5017304;28;20030;-76
2021/09/22 04:47:07;;;;;;;68.70;33.75;;;;;;;11.04;100.00;103062.19;5025415;28;20120;-76
2021/09/22 04:49:33;;;;;;;87.57;36.67;;;;;;;11.05;100.00;103063.06;5019006;28;20545;-76
2021/09/22 04:51:58;;;;;;;76.00;33.03;;;;;;;11.07;100.00;103069.31;5023434;28;20032;-76
2021/09/22 04:54:24;;;;;;;80.05;35.25;;;;;;;11.10;100.00;103070.38;5030465;28;20036;-77
2021/09/22 04:56:49;;;;;;;76.95;34.78;;;;;;;11.12;100.00;103071.38;5027061;28;20068;-74
2021/09/22 04:59:14;;;;;;;76.88;34.15;;;;;;;11.21;100.00;103070.03;5022137;28;20392;-77
2021/09/22 05:01:40;;;;;;;75.60;36.35;;;;;;;11.33;100.00;103070.63;5022396;28;20033;-77
2021/09/22 05:04:07;;;;;;;70.32;35.47;;;;;;;11.43;100.00;103077.25;5028299;28;20109;-76
2021/09/22 05:06:34;;;;;;;72.70;35.78;;;;;;;11.47;100.00;103066.91;5026858;28;20033;-76
2021/09/22 05:09:00;;;;;;;69.10;33.72;;;;;;;11.47;100.00;103069.56;5027670;28;20095;-75
2021/09/22 05:11:26;;;;;;;57.40;30.85;;;;;;;11.51;100.00;103075.00;5019985;28;20038;-76
2021/09/22 05:13:53;;;;;;;61.28;32.65;;;;;;;11.52;100.00;103071.53;5029858;28;20496;-77
2021/09/22 05:16:18;;;;;;;60.05;31.98;;;;;;;11.47;100.00;103069.56;5031082;28;20037;-76
2021/09/22 05:18:44;;;;;;;58.35;31.38;;;;;;;11.43;99.87;103066.72;5033119;28;20384;-76
2021/09/22 05:21:09;;;;;;;55.05;28.58;;;;;;;11.38;99.63;103068.22;5033058;28;20033;-76
2021/09/22 05:23:35;;;;;;;51.65;28.60;;;;;;;11.35;99.30;103068.97;5034311;28;20033;-76
2021/09/22 05:26:08;;;;;;;53.63;28.48;;;;;;;11.38;99.33;103074.41;5025714;28;20029;-76
2021/09/22 05:28:33;;;;;;;48.63;27.27;;;;;;;11.34;99.18;103069.81;5032953;28;20032;-76
2021/09/22 05:30:59;;;;;;;53.88;28.85;;;;;;;11.33;99.37;103070.63;5031286;28;20034;-76
2021/09/22 05:33:25;;;;;;;51.85;28.60;;;;;;;11.28;99.61;103067.75;5029889;28;20037;-76
2021/09/22 05:35:50;;;;;;;48.10;27.33;;;;;;;11.26;99.19;103058.88;5032010;28;20035;-75
2021/09/22 05:38:18;;;;;;;53.50;30.40;;;;;;;11.25;99.40;103070.25;5031490;28;20026;-76
2021/09/22 05:40:44;;;;;;;55.03;29.70;;;;;;;11.25;99.67;103077.25;5032667;28;20037;-76
2021/09/22 05:43:10;;;;;;;55.90;30.17;;;;;;;11.27;99.21;103071.25;5033394;28;20372;-76
2021/09/22 05:45:35;;;;;;;50.63;28.48;;;;;;;11.31;99.05;103069.63;5032175;28;20033;-77
2021/09/22 05:48:01;;;;;;;54.92;30.67;;;;;;;11.34;99.31;103077.72;5030448;28;20132;-76
2021/09/22 05:50:26;;;;;;;57.75;33.03;;;;;;;11.40;98.96;103062.19;5022782;28;20033;-76
2021/09/22 05:52:52;;;;;;;47.63;28.52;;;;;;;11.45;98.75;103068.59;5027130;28;20036;-76
2021/09/22 05:55:17;;;;;;;62.20;32.05;;;;;;;11.50;98.79;103074.06;5032984;28;20060;-79
2021/09/22 05:57:43;;;;;;;61.53;33.08;;;;;;;11.56;98.45;103081.41;5023274;28;20038;-75
2021/09/22 06:00:09;;;;;;;55.50;29.30;;;;;;;11.61;98.29;103078.16;5024175;28;20021;-77
2021/09/22 06:02:34;;;;;;;50.42;28.38;;;;;;;11.67;97.93;103074.00;5033241;28;20033;-76
2021/09/22 06:05:00;;;;;;;55.08;29.70;;;;;;;11.69;98.22;103081.13;5029696;28;20532;-75
2021/09/22 06:07:25;;;;;;;52.42;29.27;;;;;;;11.74;98.33;103079.63;5032584;28;20112;-77
2021/09/22 06:09:51;;;;;;;52.55;28.42;;;;;;;11.84;97.66;103074.81;5029590;28;20103;-76
2021/09/22 06:12:17;;;;;;;50.08;28.15;;;;;;;11.89;97.18;103070.66;5032000;28;20365;-77
2021/09/22 06:14:43;;;;;;;53.67;30.23;;;;;;;11.88;97.08;103066.19;5032499;28;20492;-75
2021/09/22 06:17:31;;;;;;;50.03;29.08;;;;;;;11.92;97.15;103070.78;5032843;28;20036;-77
2021/09/22 06:19:57;;;;;;;47.70;29.52;;;;;;;11.93;96.84;103059.41;5031382;28;20073;-75
2021/09/22 06:22:25;;;;;;;51.53;30.08;;;;;;;11.95;96.82;103063.97;5061374;28;20107;-77
2021/09/22 06:24:51;;;;;;;49.45;28.83;;;;;;;11.99;96.29;103054.44;5032807;28;20044;-76
2021/09/22 06:27:17;;;;;;;50.05;29.80;;;;;;;12.02;95.88;103054.59;5033580;28;20049;-79
2021/09/22 06:29:43;;;;;;;49.85;29.42;;;;;;;12.07;95.57;103057.44;5031994;28;20076;-78
2021/09/22 06:32:08;;;;;;;44.25;29.67;;;;;;;12.12;95.89;103061.19;5029158;28;20056;-76
2021/09/22 06:34:34;;;;;;;47.50;30.90;;;;;;;12.14;95.09;103063.06;5029093;28;20029;-76
2021/09/22 06:36:59;;;;;;;41.63;26.83;;;;;;;12.22;95.16;103073.06;5023269;28;20176;-75
2021/09/22 06:39:24;;;;;;;50.88;29.77;;;;;;;12.32;94.96;103070.03;5032093;28;20022;-76
2021/09/22 06:41:52;;;;;;;46.85;28.13;;;;;;;12.33;94.73;103066.56;5031472;28;20036;-76
2021/09/22 06:44:18;;;;;;;40.90;26.08;;;;;;;12.42;94.34;103071.34;5029474;28;20025;-76
2021/09/22 06:46:43;;;;;;;49.22;27.75;;;;;;;12.50;94.33;103069.94;5030333;28;20427;-76
2021/09/22 06:49:08;;;;;;;42.40;27.27;;;;;;;12.56;93.27;103067.59;5032865;28;20033;-76
2021/09/22 06:51:34;;;;;;;43.13;25.55;;;;;;;12.67;93.30;103073.34;5028909;28;20442;-78
2021/09/22 06:53:59;;;;;;;40.95;25.10;;;;;;;12.76;92.83;103071.06;5030995;28;20052;-77
2021/09/22 06:56:25;;;;;;;38.33;25.50;;;;;;;12.88;93.38;103072.47;5030250;28;20140;-78
2021/09/22 06:58:51;;;;;;;35.33;23.48;;;;;;;12.99;92.58;103068.53;5014213;28;20144;-78
2021/09/22 07:01:19;;;;;;;40.67;25.23;;;;;;;13.04;91.26;103067.00;5032095;28;20034;-76
2021/09/22 07:03:45;;;;;;;42.90;24.88;;;;;;;13.11;91.28;103066.41;5026342;28;20052;-78
2021/09/22 07:06:12;;;;;;;41.88;23.95;;;;;;;13.21;90.40;103073.00;5030626;28;20487;-77
2021/09/22 07:08:38;;;;;;;35.15;22.60;;;;;;;13.30;90.74;103073.34;5026820;28;20029;-78
2021/09/22 07:11:04;;;;;;;34.78;21.15;;;;;;;13.40;90.43;103073.75;5030375;28;20037;-76
2021/09/22 07:13:31;;;;;;;33.10;21.98;;;;;;;13.48;89.84;103077.63;5026892;28;20030;-75
2021/09/22 07:15:58;;;;;;;32.05;20.80;;;;;;;13.54;88.97;103084.91;5028971;28;20025;-76
2021/09/22 07:18:24;;;;;;;35.35;21.25;;;;;;;13.64;89.67;103085.31;5027579;28;20033;-77
2021/09/22 07:20:49;;;;;;;35.90;22.73;;;;;;;13.73;88.61;103094.50;5030150;28;20414;-77
2021/09/22 07:23:35;;;;;;;38.10;21.48;;;;;;;13.85;88.41;103083.47;5027677;28;20033;-75
2021/09/22 07:26:03;;;;;;;35.38;21.98;;;;;;;13.98;88.69;103080.47;5027160;28;20042;-77
2021/09/22 07:28:29;;;;;;;33.42;20.92;;;;;;;14.08;87.31;103077.34;5025986;28;21014;-78
2021/09/22 07:30:54;;;;;;;29.60;18.65;;;;;;;14.21;87.05;103075.16;5029503;28;20082;-77
2021/09/22 07:33:20;;;;;;;32.60;20.42;;;;;;;14.29;85.52;103071.03;5028227;28;20376;-76
2021/09/22 07:35:47;;;;;;;37.97;21.38;;;;;;;14.39;84.62;103075.84;5028610;28;20017;-76
2021/09/22 07:38:16;;;;;;;30.92;18.80;;;;;;;14.50;86.37;103074.47;5020171;28;20040;-75
2021/09/22 07:41:02;;;;;;;30.60;19.63;;;;;;;14.62;85.20;103073.09;5026245;28;20099;-74
2021/09/22 07:43:27;;;;;;;32.78;18.08;;;;;;;14.73;85.78;103071.78;5027010;28;20483;-76
2021/09/22 07:45:54;;;;;;;36.22;18.63;;;;;;;14.82;83.21;103060.59;5021377;28;20047;-75
2021/09/22 07:48:21;;;;;;;29.27;19.00;;;;;;;14.90;82.60;103063.50;5026110;28;20053;-76
2021/09/22 07:51:07;;;;;;;37.35;19.13;;;;;;;15.04;82.81;103067.50;5028518;28;20052;-77
2021/09/22 07:53:32;;;;;;;29.92;19.98;;;;;;;15.12;82.84;103071.31;5028005;28;20037;-77
2021/09/22 07:55:57;;;;;;;29.42;19.00;;;;;;;15.23;82.76;103063.72;5028307;28;20341;-76
2021/09/22 07:58:23;;;;;;;33.13;18.20;;;;;;;15.27;81.00;103062.97;5026113;28;20034;-76
2021/09/22 08:00:48;;;;;;;32.67;18.80;;;;;;;15.38;80.75;103050.06;5028399;28;20051;-77
2021/09/22 08:03:15;;;;;;;29.73;18.02;;;;;;;15.50;80.33;103054.88;5018900;28;20095;-75
2021/09/22 08:05:40;;;;;;;25.92;17.75;;;;;;;15.59;80.53;103046.31;5027822;28;20056;-76
2021/09/22 08:08:26;;;;;;;26.63;17.25;;;;;;;15.73;81.08;103050.28;5027603;28;20068;-77
2021/09/22 08:10:51;;;;;;;32.28;17.92;;;;;;;15.82;79.61;103047.03;5023992;28;20036;-77
2021/09/22 08:13:17;;;;;;;27.85;16.42;;;;;;;15.91;79.83;103046.41;5026488;28;20095;-77
2021/09/22 08:15:42;;;;;;;25.27;17.08;;;;;;;15.95;78.81;103043.91;5028550;28;20037;-76
2021/09/22 08:18:08;;;;;;;27.20;17.23;;;;;;;15.99;79.37;103055.50;5020636;28;20038;-76
2021/09/22 08:20:33;;;;;;;30.88;16.98;;;;;;;16.09;79.16;103056.66;5023850;28;20553;-77
2021/09/22 08:22:58;;;;;;;32.88;17.80;;;;;;;16.10;78.80;103054.09;5026842;28;20018;-77
2021/09/22 08:25:24;;;;;;;25.27;16.33;;;;;;;16.17;79.90;103052.50;5026987;28;20025;-76
2021/09/22 08:27:49;;;;;;;26.70;16.48;;;;;;;16.31;78.95;103042.25;5026914;28;20421;-76
2021/09/22 08:30:16;;;;;;;27.15;16.17;;;;;;;16.35;78.18;103038.84;5024567;28;20033;-76
2021/09/22 08:32:42;;;;;;;30.05;16.63;;;;;;;16.49;78.18;103045.44;5027413;28;20052;-76
2021/09/22 08:35:09;;;;;;;22.48;16.55;;;;;;;16.56;77.35;103045.59;5027842;28;20042;-78
2021/09/22 08:37:35;;;;;;;27.27;16.52;;;;;;;16.65;77.18;103053.81;5041166;28;20033;-77
2021/09/22 08:40:01;;;;;;;23.05;15.63;;;;;;;16.80;77.33;103048.00;5028788;28;20075;-76
2021/09/22 08:42:26;;;;;;;23.05;15.43;;;;;;;16.95;76.74;103050.19;5027138;28;20030;-77
2021/09/22 08:44:53;;;;;;;23.98;15.05;;;;;;;17.03;76.73;103045.97;5028646;28;20026;-76
2021/09/22 08:47:19;;;;;;;23.63;16.02;;;;;;;17.12;76.89;103040.88;5024898;28;20618;-76
2021/09/22 08:49:47;;;;;;;30.20;15.10;;;;;;;17.29;75.48;103035.06;5028620;28;20036;-75
2021/09/22 08:52:13;;;;;;;20.98;13.77;;;;;;;17.37;75.57;103038.81;5031029;28;20026;-76
2021/09/22 08:54:40;;;;;;;24.00;14.50;;;;;;;17.51;75.80;103047.09;5027192;28;20064;-77
2021/09/22 08:57:07;;;;;;;24.50;14.98;;;;;;;17.60;74.27;103039.34;5033685;28;20044;-75
2021/09/22 08:59:32;;;;;;;20.33;13.18;;;;;;;17.76;74.87;103050.34;5030971;28;20103;-76
2021/09/22 09:02:17;;;;;;;21.98;13.82;;;;;;;17.91;74.08;103052.44;5029634;28;20430;-77
2021/09/22 09:05:03;;;;;;;28.52;14.38;;;;;;;18.08;73.83;103048.41;5023359;28;20041;-76
2021/09/22 09:07:31;;;;;;;23.10;13.18;;;;;;;18.23;73.07;103047.81;5027987;28;20033;-79
2021/09/22 09:10:24;;;;;;;19.73;12.63;;;;;;;18.29;72.43;103049.69;5035829;28;20026;-77
2021/09/22 09:13:07;;;;;;;19.80;12.98;;;;;;;18.36;72.12;103047.16;5029203;28;20041;-76
2021/09/22 09:15:37;;;;;;;;;;;;;;;18.42;70.52;103045.50;5031544;28;20075;-76
2021/09/22 09:18:19;;;;;;;20.45;12.93;;;;;;;18.52;70.72;103039.47;5030786;28;19924;-76
2021/09/22 09:20:47;;;;;;;21.08;13.10;;;;;;;18.54;71.17;103043.06;5026585;28;20046;-76
2021/09/22 09:23:16;;;;;;;23.48;12.88;;;;;;;18.54;70.62;103033.31;5026916;28;20033;-78
2021/09/22 09:25:56;;;;;;;18.85;12.85;;;;;;;18.62;70.59;103035.22;5027863;28;20063;-77
2021/09/22 09:28:47;;;;;;;19.92;12.55;;;;;;;18.76;69.93;103033.69;5030915;28;20033;-78
2021/09/22 09:31:12;;;;;;;19.50;12.60;;;;;;;18.95;69.44;103034.03;5021826;28;20029;-75
2021/09/22 09:33:45;;;;;;;19.67;12.02;;;;;;;19.10;69.88;103026.28;5024648;28;20360;-77
2021/09/22 09:36:16;;;;;;;18.55;11.57;;;;;;;19.32;68.79;103023.97;5030782;28;20407;-78
2021/09/22 09:38:55;;;;;;;18.33;12.63;;;;;;;19.55;67.77;103013.59;5023500;28;20479;-77
2021/09/22 09:41:34;;;;;;;20.77;12.13;;;;;;;19.67;67.00;103008.44;5029103;28;20053;-78
2021/09/22 09:44:03;;;;;;;17.40;11.80;;;;;;;20.02;66.36;103017.78;5027893;28;20475;-77
2021/09/22 09:46:29;;;;;;;16.95;12.30;;;;;;;20.29;64.89;103006.50;5030537;28;20334;-76
2021/09/22 09:49:07;;;;;;;22.67;13.65;;;;;;;20.46;63.36;103004.03;5028572;28;20022;-77
2021/09/22 09:51:56;;;;;;;22.23;13.55;;;;;;;20.97;61.65;102992.88;5030445;28;20052;-77
2021/09/22 09:54:33;;;;;;;19.42;12.10;;;;;;;22.08;58.54;103001.53;5030474;28;20032;-76
2021/09/22 09:57:11;;;;;;;15.07;9.57;;;;;;;23.21;54.06;102993.59;5029720;28;20400;-76
2021/09/22 09:59:49;;;;;;;20.40;9.13;;;;;;;23.61;51.28;102992.59;5026566;28;20025;-78
2021/09/22 10:02:24;;;;;;;18.70;10.40;;;;;;;24.32;50.04;102993.16;5030552;28;20087;-76
2021/09/22 10:04:50;;;;;;;14.48;9.38;;;;;;;25.18;47.83;102975.38;5017504;28;20434;-76
2021/09/22 10:07:17;;;;;;;16.23;9.57;;;;;;;25.88;45.87;102974.56;5026312;28;20053;-76
2021/09/22 10:09:42;;;;;;;12.68;7.28;;;;;;;25.71;45.44;102974.78;5028712;28;20030;-77
2021/09/22 10:12:09;;;;;;;13.38;7.50;;;;;;;25.93;43.89;102978.97;5028289;28;20065;-77
2021/09/22 10:14:37;;;;;;;12.95;8.32;;;;;;;26.59;42.88;102970.81;5031872;28;20025;-78
2021/09/22 10:17:03;;;;;;;11.45;8.13;;;;;;;27.08;41.87;102967.25;5027596;28;20033;-77
2021/09/22 10:19:29;;;;;;;18.17;10.25;;;;;;;26.88;43.73;102973.00;5030962;28;20141;-76
2021/09/22 10:21:57;;;;;;;13.98;10.05;;;;;;;27.40;42.56;102976.56;5030982;28;20091;-76
2021/09/22 10:24:23;;;;;;;15.30;8.98;;;;;;;27.53;40.36;102960.97;5033416;28;20032;-77
2021/09/22 10:26:48;;;;;;;12.38;7.85;;;;;;;27.50;41.27;102970.97;5031507;28;20532;-76
2021/09/22 10:29:50;;;;;;;11.35;6.97;;;;;;;27.47;40.48;102965.59;5026354;28;20055;-76
2021/09/22 10:32:51;;;;;;;13.68;8.10;;;;;;;28.31;37.47;102959.22;5031195;28;20099;-77
2021/09/22 10:35:26;;;;;;;14.32;8.73;;;;;;;28.57;36.87;102954.06;5032006;28;20029;-76
2021/09/22 10:38:15;;;;;;;13.98;7.97;;;;;;;28.31;38.20;102948.41;5030722;28;20555;-77
2021/09/22 10:41:07;;;;;;;12.43;8.68;;;;;;;27.13;40.09;102950.03;5029969;28;20022;-77
2021/09/22 10:43:41;;;;;;;15.07;9.30;;;;;;;26.01;42.92;102946.47;5028302;28;20033;-77
2021/09/22 10:46:06;;;;;;;13.05;9.23;;;;;;;25.22;44.58;102947.50;5029484;28;20472;-77
2021/09/22 10:48:57;;;;;;;12.50;8.55;;;;;;;24.45;46.52;102960.78;5030694;28;20029;-76
2021/09/22 10:51:47;;;;;;;15.30;10.32;;;;;;;23.48;49.41;102954.13;5029588;28;20472;-78
2021/09/22 10:54:22;;;;;;;16.90;9.80;;;;;;;23.58;50.03;102948.69;5023885;28;20115;-77
2021/09/22 10:56:51;;;;;;;19.60;10.75;;;;;;;23.97;50.20;102953.00;5050344;28;20061;-77
2021/09/22 10:59:39;;;;;;;13.20;9.05;;;;;;;25.67;45.62;102936.19;5023259;28;20025;-76
2021/09/22 11:02:13;;;;;;;20.52;9.45;;;;;;;26.40;43.13;102927.91;5029650;28;20038;-77
2021/09/22 11:05:00;;;;;;;14.82;9.23;;;;;;;26.02;43.23;102920.41;5026658;28;20045;-77
2021/09/22 11:07:54;;;;;;;15.45;8.98;;;;;;;26.83;41.29;102917.28;5032880;28;20479;-78
2021/09/22 11:10:51;;;;;;;15.07;8.55;;;;;;;27.79;39.80;102913.50;5028528;28;20423;-77
2021/09/22 11:13:19;;;;;;;11.52;8.00;;;;;;;28.93;36.53;102899.84;5026899;28;20032;-77
2021/09/22 11:15:48;;;;;;;12.82;8.25;;;;;;;29.36;35.78;102902.25;5021215;28;20163;-77